Time;durP1;ratioP1;P1;durP2;ratioP2;P2;SDS_P1;SDS_P2;PMS_P1;PMS_P2;Temp;Humidity;BMP_temperature;BMP_pressure;BME280_temperature;BME280_humidity;BME280_pressure;Samples;Min_cycle;Max_cycle;Signal;HPM_P1;HPM_P2
2023/01/13 00:01:38;;;;;;;4.15;0.50;;;;;;;4.82;75.87;99603.22;4939406;28;20049;-70
2023/01/13 00:04:05;;;;;;;4.47;0.50;;;;;;;4.82;76.05;99606.66;4936744;28;20464;-70
2023/01/13 00:06:32;;;;;;;3.65;1.38;;;;;;;4.82;76.06;99600.63;4938122;28;20051;-70
2023/01/13 00:09:00;;;;;;;7.82;0.43;;;;;;;4.82;76.14;99603.22;4936114;28;20083;-70
2023/01/13 00:11:27;;;;;;;5.93;0.60;;;;;;;4.80;76.04;99600.63;4943837;29;20548;-68
2023/01/13 00:13:54;;;;;;;4.63;0.60;;;;;;;4.79;76.06;99604.13;4940926;28;20063;-68
2023/01/13 00:16:21;;;;;;;4.55;0.30;;;;;;;4.82;76.12;99603.22;4939382;28;20047;-68
2023/01/13 00:18:49;;;;;;;7.22;0.82;;;;;;;4.81;76.14;99607.53;4940984;28;20495;-68
2023/01/13 00:21:18;;;;;;;6.50;0.30;;;;;;;4.82;76.16;99610.97;4940584;28;20054;-68
2023/01/13 00:23:46;;;;;;;4.13;0.40;;;;;;;4.82;76.23;99608.41;4944520;28;20043;-70
2023/01/13 00:26:16;;;;;;;3.17;0.40;;;;;;;4.81;76.25;99612.72;4941583;28;20058;-70
2023/01/13 00:28:43;;;;;;;1.25;0.30;;;;;;;4.82;76.00;99618.75;4942597;28;20043;-70
2023/01/13 00:31:12;;;;;;;2.60;0.63;;;;;;;4.82;76.14;99616.16;4946844;28;20047;-70
2023/01/13 00:33:39;;;;;;;5.03;1.55;;;;;;;4.83;76.34;99620.44;4945726;28;20059;-70
2023/01/13 00:36:08;;;;;;;2.10;0.30;;;;;;;4.83;76.15;99630.78;4941612;28;20059;-70
2023/01/13 00:38:36;;;;;;;3.63;0.40;;;;;;;4.81;76.61;99627.34;4946521;29;20138;-70
2023/01/13 00:41:05;;;;;;;10.10;0.50;;;;;;;4.83;76.13;99630.78;4942821;28;20047;-70
2023/01/13 00:43:34;;;;;;;3.55;1.23;;;;;;;4.82;76.17;99635.13;4939523;28;20044;-70
2023/01/13 00:46:01;;;;;;;3.35;0.50;;;;;;;4.82;76.03;99637.69;4947984;28;20048;-68
2023/01/13 00:48:30;;;;;;;4.00;0.40;;;;;;;4.83;76.18;99634.22;4940382;28;20062;-68
2023/01/13 00:50:58;;;;;;;4.07;0.40;;;;;;;4.83;76.16;99634.22;4942036;28;20043;-68
2023/01/13 00:53:25;;;;;;;5.47;0.40;;;;;;;4.83;76.16;99630.78;4942750;29;20063;-70
2023/01/13 00:56:00;;;;;;;1.83;0.45;;;;;;;4.82;76.14;99626.50;4943018;28;20069;-70
2023/01/13 00:58:27;;;;;;;6.95;0.45;;;;;;;4.83;76.08;99630.78;4941246;28;20059;-71
2023/01/13 01:00:55;;;;;;;5.85;0.40;;;;;;;4.83;76.08;99638.56;4944949;29;20078;-70
2023/01/13 01:03:22;;;;;;;3.40;0.57;;;;;;;4.83;76.12;99636.81;4940398;28;20086;-70
2023/01/13 01:05:49;;;;;;;1.85;0.40;;;;;;;4.83;76.30;99633.38;4943747;28;20062;-70
2023/01/13 01:08:16;;;;;;;2.22;0.30;;;;;;;4.84;76.27;99632.50;4939402;28;20040;-70
2023/01/13 01:10:43;;;;;;;1.92;0.30;;;;;;;4.83;76.18;99631.63;4944320;28;20047;-70
2023/01/13 01:13:13;;;;;;;8.70;0.60;;;;;;;4.84;76.11;99642.84;4942191;28;20047;-68
2023/01/13 01:15:40;;;;;;;6.35;0.35;;;;;;;4.84;76.45;99642.84;4942882;29;20048;-68
2023/01/13 01:18:09;;;;;;;2.00;0.60;;;;;;;4.84;76.18;99637.66;4942097;28;20053;-70
2023/01/13 01:20:36;;;;;;;5.85;0.47;;;;;;;4.85;76.07;99637.66;4942384;29;20051;-70
2023/01/13 01:23:04;;;;;;;3.95;0.50;;;;;;;4.85;76.10;99634.22;4942825;28;20047;-70
2023/01/13 01:25:32;;;;;;;5.93;0.40;;;;;;;4.85;76.22;99631.63;4944445;28;20412;-70
2023/01/13 01:28:00;;;;;;;10.00;1.15;;;;;;;4.85;76.18;99626.47;4943376;28;20058;-70
2023/01/13 01:30:27;;;;;;;3.38;0.40;;;;;;;4.79;76.08;99623.97;4944137;28;20057;-70
2023/01/13 01:32:56;;;;;;;4.18;0.60;;;;;;;4.84;75.99;99637.66;4944816;28;20054;-70
2023/01/13 01:35:24;;;;;;;5.18;0.30;;;;;;;4.85;76.00;99629.03;4942101;28;20050;-70
2023/01/13 01:37:51;;;;;;;4.32;0.90;;;;;;;4.83;75.65;99634.22;4944784;28;20456;-70
2023/01/13 01:40:18;;;;;;;3.25;0.30;;;;;;;4.85;76.02;99629.03;4941441;28;20130;-70
2023/01/13 01:45:30;;;;;;;4.35;0.30;;;;;;;4.82;75.97;99623.91;4943832;28;20058;-70
2023/01/13 01:48:01;;;;;;;2.88;0.57;;;;;;;4.85;75.85;99629.03;4941511;28;20056;-70
2023/01/13 01:50:30;;;;;;;7.93;1.33;;;;;;;4.84;75.90;99628.19;4940035;29;20051;-71
2023/01/13 01:53:02;;;;;;;3.50;0.40;;;;;;;4.84;75.61;99627.31;4940722;28;20054;-70
2023/01/13 01:55:32;;;;;;;3.65;0.30;;;;;;;4.84;75.67;99635.97;4942949;28;20488;-70
2023/01/13 01:58:05;;;;;;;4.75;0.40;;;;;;;4.83;75.48;99634.22;4939903;28;20043;-70
2023/01/13 02:00:32;;;;;;;9.68;1.55;;;;;;;4.83;75.37;99638.56;4942673;28;20058;-70
2023/01/13 02:03:00;;;;;;;3.38;0.32;;;;;;;4.82;75.41;99639.44;4940339;28;20555;-71
2023/01/13 02:05:29;;;;;;;1.58;0.30;;;;;;;4.82;75.29;99634.25;4942673;29;20051;-70
2023/01/13 02:07:59;;;;;;;6.32;0.40;;;;;;;4.78;75.24;99632.56;4941689;28;20048;-70
2023/01/13 02:10:27;;;;;;;3.83;0.25;;;;;;;4.78;75.44;99638.63;4943604;28;20055;-70
2023/01/13 02:12:58;;;;;;;3.70;0.47;;;;;;;4.77;75.33;99633.47;4942035;29;20693;-70
2023/01/13 02:15:34;;;;;;;7.55;0.60;;;;;;;4.73;74.92;99628.34;4939487;28;21305;-70
2023/01/13 02:18:14;;;;;;;2.63;0.30;;;;;;;4.70;75.09;99636.13;4941021;28;20054;-70
2023/01/13 02:21:20;;;;;;;3.55;0.40;;;;;;;4.71;75.21;99634.41;4942780;29;20054;-70
2023/01/13 02:27:36;;;;;;;3.42;0.20;;;;;;;4.65;75.10;99627.56;4925150;28;20094;-70
2023/01/13 02:33:10;;;;;;;3.60;0.40;;;;;;;4.58;74.87;99632.84;4939333;28;20054;-70
2023/01/13 02:35:44;;;;;;;3.63;0.30;;;;;;;4.56;74.87;99630.28;4941280;28;20855;-70
2023/01/13 02:38:14;;;;;;;3.97;0.40;;;;;;;4.49;74.89;99616.56;4939652;29;20048;-70
2023/01/13 02:40:47;;;;;;;0.98;0.30;;;;;;;4.50;74.96;99625.19;4938550;28;20043;-70
2023/01/13 02:46:10;;;;;;;2.88;0.30;;;;;;;4.42;74.96;99622.69;4942113;28;20535;-70
2023/01/13 02:48:39;;;;;;;2.08;0.38;;;;;;;4.39;74.87;99620.13;4942071;28;20575;-70
2023/01/13 02:51:10;;;;;;;3.88;0.40;;;;;;;4.38;74.78;99631.34;4939591;29;20472;-70
2023/01/13 02:53:42;;;;;;;3.25;0.30;;;;;;;4.33;74.76;99620.22;4941951;28;20090;-70
2023/01/13 02:56:12;;;;;;;2.60;0.47;;;;;;;4.34;75.06;99629.66;4945020;28;20051;-70
2023/01/13 02:58:41;;;;;;;2.58;0.30;;;;;;;4.32;74.70;99625.38;4943473;28;20445;-70
2023/01/13 03:01:10;;;;;;;3.72;0.65;;;;;;;4.28;74.87;99622.84;4943527;28;20069;-70
2023/01/13 03:03:37;;;;;;;1.98;0.50;;;;;;;4.25;74.98;99622.88;4941770;28;20052;-71
2023/01/13 03:06:14;;;;;;;1.95;0.47;;;;;;;4.25;74.84;99627.19;4943316;29;20062;-70
2023/01/13 03:08:48;;;;;;;2.00;0.40;;;;;;;4.23;74.64;99634.94;4940863;29;20050;-70
2023/01/13 03:11:16;;;;;;;4.18;0.52;;;;;;;4.19;74.92;99635.03;4937332;28;20055;-70
2023/01/13 03:14:06;;;;;;;2.05;0.40;;;;;;;4.19;74.91;99638.47;4942422;29;20047;-70
2023/01/13 03:16:48;;;;;;;4.72;0.32;;;;;;;4.16;74.99;99643.66;4938804;28;20047;-71
2023/01/13 03:19:29;;;;;;;2.50;0.60;;;;;;;4.14;74.71;99635.06;4943775;28;20043;-71
2023/01/13 03:22:01;;;;;;;4.35;0.60;;;;;;;4.12;74.85;99647.13;4937493;28;20058;-70
2023/01/13 03:24:34;;;;;;;4.82;0.40;;;;;;;4.09;74.94;99642.00;4941135;28;20432;-70
2023/01/13 03:27:06;;;;;;;2.50;0.30;;;;;;;4.04;74.78;99648.94;4942706;28;20053;-70
2023/01/13 03:29:37;;;;;;;1.63;0.40;;;;;;;4.06;74.71;99652.38;4939921;29;20469;-70
2023/01/13 03:32:10;;;;;;;2.25;0.32;;;;;;;4.04;75.04;99649.81;4942868;28;20046;-75
2023/01/13 03:34:44;;;;;;;2.90;0.30;;;;;;;4.04;75.12;99654.09;4942204;28;20431;-75
2023/01/13 03:37:14;;;;;;;3.30;0.30;;;;;;;4.02;74.80;99654.13;4940200;28;20119;-75
2023/01/13 03:39:47;;;;;;;4.80;0.40;;;;;;;4.01;74.84;99654.13;4941009;28;20052;-75
2023/01/13 03:42:18;;;;;;;1.05;0.40;;;;;;;3.97;74.96;99648.16;4962461;28;20046;-80
2023/01/13 03:44:51;;;;;;;3.55;0.40;;;;;;;3.83;74.74;99624.19;4952559;29;20047;-79
2023/01/13 03:47:26;;;;;;;2.03;0.30;;;;;;;3.91;74.94;99644.78;4947794;28;20048;-79
2023/01/13 03:49:59;;;;;;;4.28;0.73;;;;;;;3.96;74.89;99653.34;4949082;29;20493;-79
2023/01/13 03:52:31;;;;;;;2.90;0.30;;;;;;;3.77;75.16;99616.50;4934169;28;20047;-77
2023/01/13 03:55:03;;;;;;;2.17;0.40;;;;;;;3.93;74.75;99650.78;4942656;28;20045;-79
2023/01/13 03:57:34;;;;;;;1.10;0.30;;;;;;;3.92;74.97;99654.22;4945133;29;20054;-79
2023/01/13 04:00:06;;;;;;;3.92;0.35;;;;;;;3.90;75.05;99653.38;4951132;28;20047;-79
2023/01/13 04:02:48;;;;;;;2.60;0.50;;;;;;;3.89;74.91;99651.69;4943233;29;20073;-79
2023/01/13 04:05:17;;;;;;;1.73;0.30;;;;;;;3.86;74.80;99649.13;4952908;28;20047;-79
2023/01/13 04:07:59;;;;;;;2.28;0.30;;;;;;;3.86;75.19;99649.97;4948563;28;20064;-79
2023/01/13 04:10:30;;;;;;;2.72;0.40;;;;;;;3.82;74.71;99649.16;4953102;28;20047;-79
2023/01/13 04:13:01;;;;;;;1.85;0.30;;;;;;;3.65;74.54;99619.19;4938755;29;20050;-79
2023/01/13 04:15:31;;;;;;;1.08;0.30;;;;;;;3.79;74.62;99638.84;4940435;28;20047;-79
2023/01/13 04:18:15;;;;;;;0.82;0.20;;;;;;;3.74;74.76;99634.59;4953404;29;20048;-79
2023/01/13 04:20:44;;;;;;;4.93;0.85;;;;;;;3.75;74.95;99642.31;4943032;28;20496;-79
2023/01/13 04:23:12;;;;;;;1.80;1.20;;;;;;;3.72;74.85;99636.34;4953206;28;20575;-78
2023/01/13 04:25:39;;;;;;;3.33;0.38;;;;;;;3.71;74.75;99638.06;4956453;28;20377;-79
2023/01/13 04:28:06;;;;;;;2.40;0.30;;;;;;;3.70;74.65;99638.06;4948666;28;20043;-80
2023/01/13 04:30:33;;;;;;;2.45;0.20;;;;;;;3.70;74.81;99638.06;4943501;28;20052;-79
2023/01/13 04:33:00;;;;;;;3.95;0.30;;;;;;;3.67;74.84;99636.41;4948021;28;20047;-79
2023/01/13 04:35:28;;;;;;;3.15;0.30;;;;;;;3.66;74.99;99641.56;4946541;28;20415;-79
2023/01/13 04:37:55;;;;;;;0.47;0.20;;;;;;;3.65;75.08;99639.84;4947058;28;20522;-79
2023/01/13 04:40:23;;;;;;;3.15;0.30;;;;;;;3.63;74.93;99633.84;4949501;28;20043;-79
2023/01/13 04:42:49;;;;;;;3.15;0.40;;;;;;;3.61;74.82;99636.41;4943622;28;20397;-77
2023/01/13 04:45:17;;;;;;;3.33;0.30;;;;;;;3.59;74.92;99639.03;4947669;28;20050;-79
2023/01/13 04:47:43;;;;;;;2.70;0.47;;;;;;;3.59;74.88;99648.50;4944582;28;20054;-79
2023/01/13 04:50:11;;;;;;;2.70;0.28;;;;;;;3.58;74.90;99649.34;4948521;28;20047;-79
2023/01/13 04:52:40;;;;;;;3.55;0.38;;;;;;;3.55;74.86;99650.22;4940833;28;20079;-79
2023/01/13 04:55:09;;;;;;;1.13;0.30;;;;;;;3.55;75.06;99650.22;4948902;28;20055;-79
2023/01/13 04:57:36;;;;;;;3.20;0.30;;;;;;;3.51;75.12;99642.53;4941270;28;20062;-79
2023/01/13 05:00:05;;;;;;;1.58;0.82;;;;;;;3.51;74.70;99642.53;4950441;28;20066;-79
2023/01/13 05:02:32;;;;;;;3.63;0.45;;;;;;;3.47;74.97;99646.88;4942618;28;20090;-79
2023/01/13 05:04:59;;;;;;;0.40;0.30;;;;;;;3.49;75.06;99654.59;4946654;28;20047;-79
2023/01/13 05:07:26;;;;;;;1.90;0.68;;;;;;;3.41;75.09;99636.56;4952788;28;20055;-79
2023/01/13 05:09:54;;;;;;;2.33;0.20;;;;;;;3.46;74.90;99652.03;4946749;28;20058;-79
2023/01/13 05:17:51;;;;;;;2.22;0.30;;;;;;;3.40;75.23;99647.78;4949958;28;20063;-79
2023/01/13 05:20:18;;;;;;;5.53;0.52;;;;;;;3.38;74.95;99647.78;4953222;28;20130;-79
2023/01/13 05:25:31;;;;;;;3.22;0.40;;;;;;;3.34;75.05;99651.25;4954146;28;20539;-79
2023/01/13 05:27:59;;;;;;;2.33;0.38;;;;;;;3.32;75.36;99640.09;4948467;28;20039;-79
2023/01/13 05:30:28;;;;;;;2.05;0.45;;;;;;;3.32;75.49;99642.66;4954090;28;20051;-79
2023/01/13 05:32:55;;;;;;;0.82;0.30;;;;;;;3.30;75.65;99644.44;4946817;28;20404;-79
2023/01/13 05:35:22;;;;;;;0.60;0.20;;;;;;;3.30;75.84;99638.38;4943475;29;20738;-79
2023/01/13 05:37:49;;;;;;;1.48;0.40;;;;;;;3.28;75.54;99632.41;4940479;29;20043;-79
2023/01/13 05:43:23;;;;;;;5.25;0.50;;;;;;;3.30;75.63;99644.44;4939871;29;20054;-79
2023/01/13 05:45:53;;;;;;;1.08;0.30;;;;;;;3.29;75.73;99644.41;4941649;28;20067;-78
2023/01/13 05:48:21;;;;;;;0.52;0.20;;;;;;;3.23;76.09;99629.84;4945706;29;20584;-80
2023/01/13 05:50:49;;;;;;;1.98;0.45;;;;;;;3.26;75.84;99623.78;4940149;29;20043;-79
2023/01/13 05:53:16;;;;;;;2.25;0.30;;;;;;;3.31;75.88;99632.38;4948505;28;20051;-79
2023/01/13 05:55:45;;;;;;;1.73;0.50;;;;;;;3.32;76.22;99626.34;4945568;28;20506;-78
2023/01/13 05:58:15;;;;;;;0.77;0.20;;;;;;;3.32;76.32;99634.06;4946291;28;20050;-79
2023/01/13 06:00:42;;;;;;;1.85;0.30;;;;;;;3.31;76.27;99630.63;4946434;28;20455;-79
2023/01/13 06:03:09;;;;;;;1.80;0.32;;;;;;;3.31;76.39;99615.16;4947291;29;20064;-76
2023/01/13 06:05:36;;;;;;;0.43;0.20;;;;;;;3.32;76.38;99616.84;4942139;28;20046;-76
2023/01/13 06:08:06;;;;;;;0.30;0.20;;;;;;;3.33;76.61;99621.16;4940271;28;20044;-76
2023/01/13 06:10:33;;;;;;;1.98;0.30;;;;;;;3.35;76.40;99626.31;4943685;28;20131;-76
2023/01/13 06:13:00;;;;;;;2.50;0.20;;;;;;;3.35;76.53;99623.72;4942385;29;20128;-76
2023/01/13 06:15:28;;;;;;;0.88;0.30;;;;;;;3.35;76.67;99614.25;4945759;28;20142;-76
2023/01/13 06:17:56;;;;;;;3.40;0.40;;;;;;;3.37;76.71;99614.25;4946302;29;20054;-77
2023/01/13 06:20:23;;;;;;;2.75;0.40;;;;;;;3.40;76.95;99621.13;4945905;28;20075;-77
2023/01/13 06:22:52;;;;;;;2.17;0.25;;;;;;;3.41;76.69;99604.75;4943872;29;20138;-76
2023/01/13 06:25:26;;;;;;;0.40;0.30;;;;;;;3.40;77.30;99597.88;4943174;29;20444;-76
2023/01/13 06:27:54;;;;;;;2.75;0.20;;;;;;;3.45;77.03;99609.03;4944378;29;20043;-76
2023/01/13 06:30:21;;;;;;;0.70;0.32;;;;;;;3.46;77.06;99605.56;4943468;29;20047;-76
2023/01/13 06:32:53;;;;;;;0.90;0.20;;;;;;;3.49;77.35;99603.81;4945126;29;20046;-76
2023/01/13 06:35:25;;;;;;;0.77;0.20;;;;;;;3.52;76.84;99605.53;4943797;29;20058;-76
2023/01/13 06:37:56;;;;;;;2.05;0.25;;;;;;;3.54;77.34;99601.22;4947275;29;20081;-76
2023/01/13 06:40:24;;;;;;;1.45;0.20;;;;;;;3.55;77.30;99606.34;4944691;28;20058;-76
2023/01/13 06:45:50;;;;;;;1.30;0.20;;;;;;;3.58;77.04;99597.72;4920623;29;20051;-76
2023/01/13 06:48:22;;;;;;;2.03;0.20;;;;;;;3.60;77.00;99602.00;4939364;28;20051;-76
2023/01/13 06:50:49;;;;;;;3.20;0.20;;;;;;;3.62;76.81;99604.59;4944044;29;20517;-77
2023/01/13 06:53:16;;;;;;;2.75;0.20;;;;;;;3.65;76.98;99601.13;4942499;28;20051;-76
2023/01/13 06:55:43;;;;;;;1.13;0.20;;;;;;;3.66;76.96;99611.41;4944144;28;20107;-79
2023/01/13 06:58:10;;;;;;;1.15;0.20;;;;;;;3.67;77.21;99595.06;4942916;28;20481;-76
2023/01/13 07:00:37;;;;;;;1.50;0.20;;;;;;;3.68;77.33;99599.34;4941452;28;20405;-77
2023/01/13 07:03:12;;;;;;;2.38;0.20;;;;;;;3.71;77.49;99591.56;4938971;28;20043;-78
2023/01/13 07:05:41;;;;;;;1.17;0.20;;;;;;;3.72;77.47;99593.28;4938993;29;20056;-77
2023/01/13 07:08:09;;;;;;;2.03;0.20;;;;;;;3.74;77.55;99591.53;4941303;29;20127;-77
2023/01/13 07:10:37;;;;;;;0.98;0.28;;;;;;;3.75;77.66;99584.66;4948038;28;20133;-77
2023/01/13 07:15:56;;;;;;;2.08;0.20;;;;;;;3.80;77.56;99575.13;4944067;28;20070;-77
2023/01/13 07:18:26;;;;;;;1.48;0.20;;;;;;;3.81;77.36;99569.97;4942066;28;20048;-76
2023/01/13 07:20:55;;;;;;;2.92;0.43;;;;;;;3.83;77.23;99562.19;4941684;28;20126;-77
2023/01/13 07:23:23;;;;;;;1.52;0.20;;;;;;;3.83;77.66;99568.19;4939492;29;20457;-77
2023/01/13 07:25:51;;;;;;;0.60;0.20;;;;;;;3.88;77.46;99567.31;4948209;28;20047;-77
2023/01/13 07:28:17;;;;;;;3.72;0.40;;;;;;;3.90;77.32;99570.72;4945718;28;20053;-77
2023/01/13 07:30:44;;;;;;;4.22;0.50;;;;;;;3.91;77.70;99555.22;4942005;28;20043;-77
2023/01/13 07:33:11;;;;;;;2.60;0.35;;;;;;;3.92;77.40;99550.88;4943346;28;20047;-77
2023/01/13 07:35:38;;;;;;;5.18;0.60;;;;;;;3.93;77.51;99557.78;4941912;28;20423;-77
2023/01/13 07:38:07;;;;;;;2.25;0.60;;;;;;;3.94;77.73;99555.16;4944408;28;20055;-78
2023/01/13 07:40:34;;;;;;;4.50;0.30;;;;;;;3.94;77.17;99562.06;4944406;28;20444;-76
2023/01/13 07:45:45;;;;;;;5.15;0.30;;;;;;;3.97;77.25;99555.13;4941388;28;20183;-75
2023/01/13 07:48:12;;;;;;;1.83;0.30;;;;;;;3.99;77.70;99548.22;4940296;29;20337;-76
2023/01/13 07:50:39;;;;;;;5.28;0.40;;;;;;;4.01;77.45;99550.78;4939802;29;20044;-76
2023/01/13 07:53:07;;;;;;;4.28;0.60;;;;;;;4.03;77.56;99549.03;4946523;28;20484;-76
2023/01/13 07:55:34;;;;;;;4.75;0.75;;;;;;;4.05;77.51;99552.47;4944331;28;20065;-74
2023/01/13 07:58:01;;;;;;;0.90;0.40;;;;;;;4.06;77.40;99536.09;4943725;28;20518;-77
2023/01/13 08:00:28;;;;;;;3.55;0.35;;;;;;;4.01;77.35;99527.53;4943389;28;20057;-75
2023/01/13 08:02:55;;;;;;;5.43;0.52;;;;;;;4.09;77.47;99538.63;4943831;29;20043;-75
2023/01/13 08:05:21;;;;;;;1.17;0.20;;;;;;;4.11;77.50;99536.03;4943559;28;20055;-73
2023/01/13 08:07:48;;;;;;;1.67;0.40;;;;;;;4.09;77.70;99517.97;4942142;28;20047;-72
2023/01/13 08:10:17;;;;;;;0.93;0.30;;;;;;;4.13;77.54;99532.56;4942208;28;20050;-75
2023/01/13 08:15:24;;;;;;;2.42;0.20;;;;;;;4.13;77.63;99522.22;4927748;28;21240;-76
2023/01/13 08:17:51;;;;;;;1.98;0.30;;;;;;;4.16;77.48;99518.75;4935275;29;20052;-76
2023/01/13 08:20:18;;;;;;;2.78;0.30;;;;;;;4.17;77.52;99516.13;4940231;29;20048;-75
2023/01/13 08:22:45;;;;;;;5.13;0.22;;;;;;;4.16;77.50;99511.84;4940756;28;20550;-77
2023/01/13 08:25:12;;;;;;;8.85;0.57;;;;;;;4.18;77.74;99504.91;4939845;28;20050;-76
2023/01/13 08:27:40;;;;;;;4.90;0.30;;;;;;;4.19;77.60;99498.03;4939245;29;20051;-77
2023/01/13 08:30:08;;;;;;;3.50;0.35;;;;;;;4.18;77.62;99486.81;4942714;28;20062;-75
2023/01/13 08:32:35;;;;;;;3.92;0.60;;;;;;;4.20;77.57;99485.06;4940292;28;20461;-74
2023/01/13 08:35:02;;;;;;;3.60;0.38;;;;;;;4.18;77.52;99484.22;4940795;28;20444;-75
2023/01/13 08:37:32;;;;;;;1.52;0.30;;;;;;;4.20;77.77;99476.47;4943223;28;20060;-74
2023/01/13 08:39:58;;;;;;;2.75;0.20;;;;;;;4.22;77.78;99474.72;4941001;28;20055;-74
2023/01/13 08:42:26;;;;;;;4.80;0.50;;;;;;;4.20;77.58;99474.75;4939024;28;20051;-75
2023/01/13 08:44:54;;;;;;;2.53;0.40;;;;;;;4.19;77.94;99473.03;4941814;28;20127;-76
2023/01/13 08:47:21;;;;;;;1.85;0.20;;;;;;;4.20;77.84;99469.56;4947244;28;20055;-76
2023/01/13 08:49:48;;;;;;;4.65;0.50;;;;;;;4.22;77.58;99473.00;4945339;28;20130;-75
2023/01/13 08:52:16;;;;;;;4.00;0.30;;;;;;;4.22;77.70;99472.16;4945296;28;20050;-75
2023/01/13 08:54:43;;;;;;;4.68;0.22;;;;;;;4.22;77.77;99478.16;4945857;28;20048;-77
2023/01/13 08:57:10;;;;;;;6.60;0.30;;;;;;;4.23;77.76;99469.53;4943291;28;20048;-77
2023/01/13 08:59:37;;;;;;;0.70;0.25;;;;;;;4.25;77.93;99461.75;4941808;28;20415;-74
2023/01/13 09:02:12;;;;;;;0.57;0.30;;;;;;;4.25;77.90;99467.78;4944706;28;20051;-75
2023/01/13 09:04:40;;;;;;;2.47;0.38;;;;;;;4.26;77.61;99463.47;4943147;28;20053;-75
2023/01/13 09:07:06;;;;;;;1.00;0.13;;;;;;;4.28;77.96;99459.97;4944225;28;20055;-74
2023/01/13 09:09:33;;;;;;;3.88;0.20;;;;;;;4.31;77.91;99458.25;4945766;29;20078;-75
2023/01/13 09:14:45;;;;;;;2.33;0.77;;;;;;;4.34;78.11;99442.69;4945365;28;20054;-75
2023/01/13 09:17:13;;;;;;;1.75;0.30;;;;;;;4.35;77.91;99441.78;4941972;28;20048;-75
2023/01/13 09:19:40;;;;;;;1.75;0.15;;;;;;;4.36;77.99;99438.34;4945764;28;20166;-76
2023/01/13 09:22:09;;;;;;;0.68;0.20;;;;;;;4.36;78.03;99428.00;4941364;28;20051;-75
2023/01/13 09:24:36;;;;;;;1.55;0.30;;;;;;;4.38;78.07;99431.41;4943720;28;20131;-76
2023/01/13 09:27:03;;;;;;;0.22;0.10;;;;;;;4.39;78.15;99438.31;4942351;29;20131;-75
2023/01/13 09:29:30;;;;;;;1.77;0.10;;;;;;;4.39;78.16;99428.81;4945668;29;20513;-75
2023/01/13 09:31:57;;;;;;;0.10;0.10;;;;;;;4.39;78.00;99421.06;4946073;28;20044;-76
2023/01/13 09:37:10;;;;;;;0.63;0.00;;;;;;;4.41;78.17;99410.69;4944487;28;20205;-76
2023/01/13 09:39:38;;;;;;;3.42;0.00;;;;;;;4.43;78.15;99411.50;4945358;28;20043;-74
2023/01/13 09:45:04;;;;;;;;;;;;;;;4.44;77.90;99406.34;4943686;28;20054;-75
2023/01/13 09:47:35;;;;;;;0.30;0.08;;;;;;;4.44;78.12;99398.56;4942724;28;19938;-75
2023/01/13 09:50:17;;;;;;;0.38;0.05;;;;;;;4.45;78.21;99402.00;4944923;29;20058;-74
2023/01/13 09:52:44;;;;;;;0.75;0.08;;;;;;;4.45;78.41;99402.84;4944308;28;20047;-75
2023/01/13 09:55:15;;;;;;;1.45;0.00;;;;;;;4.47;78.21;99400.25;4943831;28;20047;-75
2023/01/13 09:57:42;;;;;;;2.38;0.00;;;;;;;4.50;78.28;99405.38;4944649;28;20081;-76
2023/01/13 10:00:13;;;;;;;0.10;0.00;;;;;;;4.50;78.52;99387.28;4945238;28;20090;-75
2023/01/13 10:03:07;;;;;;;0.05;0.00;;;;;;;4.51;78.24;99382.06;4944102;28;20106;-75
2023/01/13 10:05:38;;;;;;;0.10;0.00;;;;;;;4.53;78.34;99373.47;4943608;28;20496;-75
2023/01/13 10:08:11;;;;;;;0.60;0.00;;;;;;;4.50;78.45;99369.19;4944210;29;20130;-75
2023/01/13 10:10:42;;;;;;;0.03;0.00;;;;;;;4.56;78.49;99374.25;4940133;28;20057;-76
2023/01/13 10:13:18;;;;;;;0.00;0.00;;;;;;;4.59;78.39;99366.44;4944143;28;20044;-74
2023/01/13 10:15:54;;;;;;;1.23;0.85;;;;;;;4.59;78.52;99358.69;4938959;28;20055;-75
2023/01/13 10:18:57;;;;;;;0.77;0.00;;;;;;;4.61;78.37;99353.47;4943947;28;20048;-75
2023/01/13 10:21:48;;;;;;;0.10;0.00;;;;;;;4.63;78.45;99349.13;4941715;28;20059;-76
2023/01/13 10:24:26;;;;;;;0.30;0.00;;;;;;;4.64;78.53;99346.53;4944396;28;20499;-77
2023/01/13 10:27:02;;;;;;;1.10;0.10;;;;;;;4.67;78.40;99340.47;4944000;28;20400;-75
2023/01/13 10:29:30;;;;;;;0.30;0.00;;;;;;;4.68;78.42;99337.81;4944020;28;20061;-75
2023/01/13 10:31:59;;;;;;;0.10;0.00;;;;;;;4.70;78.52;99335.22;4941743;28;20052;-75
2023/01/13 10:34:27;;;;;;;1.17;0.85;;;;;;;4.71;78.37;99332.59;4943992;29;20063;-79
2023/01/13 10:37:05;;;;;;;0.30;0.10;;;;;;;4.74;78.75;99318.75;4944383;28;20611;-78
2023/01/13 10:39:40;;;;;;;0.98;0.20;;;;;;;4.77;78.65;99321.28;4949516;28;20058;-78
2023/01/13 10:42:13;;;;;;;1.30;0.00;;;;;;;4.80;78.66;99317.78;4943907;28;20408;-77
2023/01/13 10:44:48;;;;;;;1.30;0.10;;;;;;;4.82;78.69;99323.81;4951374;28;20062;-78
2023/01/13 10:47:26;;;;;;;0.10;0.10;;;;;;;4.84;78.50;99322.00;4942777;28;20484;-78
2023/01/13 10:50:04;;;;;;;2.28;0.10;;;;;;;4.86;78.91;99328.03;4942105;28;20047;-75
2023/01/13 10:52:37;;;;;;;2.25;0.10;;;;;;;4.87;78.92;99325.41;4942298;29;20459;-75
2023/01/13 10:55:23;;;;;;;1.05;0.08;;;;;;;4.89;79.01;99323.63;4942718;28;20130;-74
2023/01/13 10:57:50;;;;;;;0.20;0.10;;;;;;;4.92;78.83;99325.31;4944506;28;20047;-75
2023/01/13 11:00:27;;;;;;;0.20;0.10;;;;;;;4.93;78.97;99316.69;4942488;28;20507;-75
2023/01/13 11:03:13;;;;;;;1.25;0.10;;;;;;;4.96;78.92;99309.72;4942198;29;20048;-71
2023/01/13 11:05:40;;;;;;;1.20;0.20;;;;;;;4.98;78.99;99307.13;4943629;28;20284;-71
2023/01/13 11:08:17;;;;;;;1.15;0.30;;;;;;;5.02;79.11;99313.06;4942993;28;20489;-71
2023/01/13 11:10:46;;;;;;;3.42;0.30;;;;;;;5.00;79.20;99307.91;4941536;28;20044;-72
2023/01/13 11:13:16;;;;;;;0.55;0.20;;;;;;;5.06;79.28;99314.72;4943492;28;20043;-74
2023/01/13 11:15:55;;;;;;;1.77;0.30;;;;;;;5.08;79.36;99307.78;4940235;28;20046;-74
2023/01/13 11:18:28;;;;;;;0.70;0.43;;;;;;;5.10;79.25;99312.03;4939918;28;20057;-74
2023/01/13 11:20:57;;;;;;;0.40;0.30;;;;;;;5.13;79.53;99300.78;4938466;28;20126;-74
2023/01/13 11:23:32;;;;;;;1.90;0.40;;;;;;;5.16;79.39;99309.31;4942003;28;20054;-74
2023/01/13 11:26:04;;;;;;;0.90;0.60;;;;;;;5.16;79.58;99306.75;4941672;28;20066;-74
2023/01/13 11:28:39;;;;;;;3.13;0.52;;;;;;;5.18;79.55;99312.75;4941914;28;20047;-73
2023/01/13 11:31:15;;;;;;;3.75;0.60;;;;;;;5.20;79.70;99302.34;4939343;28;20443;-74
2023/01/13 11:33:46;;;;;;;1.02;0.50;;;;;;;5.24;79.65;99305.75;4942442;28;20051;-74
2023/01/13 11:36:18;;;;;;;2.15;0.80;;;;;;;5.26;79.70;99314.31;4939024;28;20044;-74
2023/01/13 11:38:49;;;;;;;1.80;0.65;;;;;;;5.29;79.85;99303.91;4943030;28;20073;-74
2023/01/13 11:41:42;;;;;;;1.33;0.40;;;;;;;5.30;79.66;99303.88;4936534;28;20057;-75
2023/01/13 11:44:20;;;;;;;0.60;0.60;;;;;;;5.33;79.97;99305.56;4933354;29;20071;-75
2023/01/13 11:46:50;;;;;;;0.70;0.40;;;;;;;5.36;79.53;99305.47;4940274;28;20047;-75
2023/01/13 11:49:24;;;;;;;3.47;0.40;;;;;;;5.36;79.76;99300.31;4939560;29;20618;-75
2023/01/13 11:51:57;;;;;;;1.52;0.40;;;;;;;5.41;79.88;99304.50;4944708;29;20050;-74
2023/01/13 11:54:55;;;;;;;1.17;0.40;;;;;;;5.44;79.60;99315.69;4938314;29;20049;-74
2023/01/13 11:57:47;;;;;;;2.38;0.50;;;;;;;5.46;79.75;99306.97;4929701;29;20086;-74
2023/01/13 12:00:30;;;;;;;1.27;0.40;;;;;;;5.49;79.73;99304.31;4931886;28;20058;-75
2023/01/13 12:03:19;;;;;;;1.77;0.43;;;;;;;5.51;80.01;99305.16;4940260;28;20049;-75
2023/01/13 12:05:58;;;;;;;1.65;0.73;;;;;;;5.54;79.85;99304.22;4941545;28;20508;-75
2023/01/13 12:08:55;;;;;;;4.80;0.30;;;;;;;5.55;79.77;99312.00;4942314;29;20069;-74
2023/01/13 12:11:30;;;;;;;0.57;0.20;;;;;;;5.59;79.93;99313.63;4940436;29;20059;-71
2023/01/13 12:14:19;;;;;;;1.90;0.30;;;;;;;5.61;79.72;99322.22;4942014;29;20046;-71
2023/01/13 12:16:49;;;;;;;1.77;0.20;;;;;;;5.57;79.89;99299.00;4941090;28;20066;-71
2023/01/13 12:19:24;;;;;;;0.63;0.20;;;;;;;5.67;79.58;99322.97;4942765;28;20043;-71
2023/01/13 12:22:06;;;;;;;;;;;;;;;5.69;79.31;99318.59;4944433;28;20134;-73
2023/01/13 12:24:38;;;;;;;5.43;0.20;;;;;;;5.71;79.00;99334.97;4943557;28;19926;-71
2023/01/13 12:27:13;;;;;;;0.82;0.13;;;;;;;5.71;79.33;99328.03;4944288;29;20058;-72
2023/01/13 12:29:40;;;;;;;1.63;0.35;;;;;;;5.73;79.21;99333.19;4944202;28;20052;-71
2023/01/13 12:32:12;;;;;;;4.25;0.73;;;;;;;5.74;79.39;99347.84;4944353;28;20055;-71
2023/01/13 12:34:53;;;;;;;2.40;0.17;;;;;;;5.76;79.16;99354.69;4943856;28;20055;-72
2023/01/13 12:37:27;;;;;;;1.45;0.20;;;;;;;5.78;79.19;99344.31;4944713;28;20055;-72
2023/01/13 12:40:18;;;;;;;2.92;0.22;;;;;;;5.80;79.12;99342.53;4943005;28;20044;-71
2023/01/13 12:45:40;;;;;;;3.95;0.30;;;;;;;5.82;78.84;99336.44;4938952;28;20063;-70